createdAt,value
2022-10-25T00:01:59.708Z,17.35
2022-10-25T00:04:01.748Z,17.33
2022-10-25T00:06:03.461Z,17.31
2022-10-25T00:08:05.634Z,17.29
2022-10-25T00:10:08.477Z,17.29
2022-10-25T00:12:10.274Z,17.28
2022-10-25T00:14:18.571Z,17.26
2022-10-25T00:16:24.711Z,17.24
2022-10-25T00:18:26.604Z,17.21
2022-10-25T00:20:28.297Z,17.22
2022-10-25T00:22:29.895Z,17.22
2022-10-25T00:24:32.086Z,17.20
2022-10-25T00:26:34.909Z,17.18
2022-10-25T00:28:36.761Z,17.16
2022-10-25T00:30:38.450Z,17.14
2022-10-25T00:32:40.090Z,17.14
2022-10-25T00:34:41.621Z,17.12
2022-10-25T00:36:43.209Z,17.11
2022-10-25T00:38:46.277Z,17.11
2022-10-25T00:40:48.125Z,17.07
2022-10-25T00:42:49.782Z,17.07
2022-10-25T00:45:01.954Z,17.04
2022-10-25T00:47:06.983Z,17.04
2022-10-25T00:49:13.079Z,17.02
2022-10-25T00:51:14.961Z,17.02
2022-10-25T00:53:20.573Z,17.00
2022-10-25T00:55:26.999Z,16.99
2022-10-25T00:57:53.833Z,16.96
2022-10-25T00:59:56.141Z,16.94
2022-10-25T01:01:58.330Z,16.94
2022-10-25T01:04:04.962Z,16.93
2022-10-25T01:06:14.037Z,16.91
2022-10-25T01:08:16.437Z,16.89
2022-10-25T01:10:18.402Z,16.88
2022-10-25T01:12:20.339Z,16.88
2022-10-25T01:14:23.148Z,16.86
2022-10-25T01:16:54.342Z,16.84
2022-10-25T01:21:50.575Z,16.79
2022-10-25T01:24:16.364Z,16.77
2022-10-25T01:26:41.259Z,16.74
2022-10-25T01:29:06.146Z,16.71
2022-10-25T01:31:20.754Z,16.70
2022-10-25T01:33:47.113Z,16.68
2022-10-25T01:35:57.655Z,16.65
2022-10-25T01:38:11.332Z,16.65
2022-10-25T01:40:24.082Z,16.62
2022-10-25T01:42:47.599Z,16.62
2022-10-25T01:45:01.645Z,16.58
2022-10-25T01:47:05.488Z,16.55
2022-10-25T01:49:14.641Z,16.54
2022-10-25T01:51:18.382Z,16.51
2022-10-25T01:53:20.028Z,16.48
2022-10-25T01:55:35.369Z,16.46
2022-10-25T01:57:37.174Z,16.43
2022-10-25T02:00:03.257Z,16.40
2022-10-25T02:02:36.640Z,16.35
2022-10-25T02:04:52.967Z,16.32
2022-10-25T02:07:06.628Z,16.30
2022-10-25T02:09:22.579Z,16.26
2022-10-25T02:11:32.421Z,16.24
2022-10-25T02:13:44.104Z,16.23
2022-10-25T02:15:58.663Z,16.20
2022-10-25T02:18:04.912Z,16.21
2022-10-25T02:20:07.933Z,16.18
2022-10-25T02:22:12.470Z,16.15
2022-10-25T02:24:19.360Z,16.12
2022-10-25T02:26:21.960Z,16.11
2022-10-25T02:28:27.840Z,16.09
2022-10-25T02:30:33.891Z,16.06
2022-10-25T02:32:35.687Z,16.04
2022-10-25T02:34:37.177Z,16.02
2022-10-25T02:36:38.776Z,16.00
2022-10-25T02:38:41.650Z,15.99
2022-10-25T02:40:43.296Z,15.97
2022-10-25T02:42:44.962Z,15.95
2022-10-25T02:44:46.833Z,15.92
2022-10-25T02:46:48.483Z,15.92
2022-10-25T02:48:50.725Z,15.89
2022-10-25T02:50:52.459Z,15.88
2022-10-25T02:52:54.090Z,15.89
2022-10-25T02:54:56.165Z,15.88
2022-10-25T02:56:57.780Z,15.89
2022-10-25T02:58:59.411Z,15.87
2022-10-25T03:01:01.799Z,15.84
2022-10-25T03:03:03.634Z,15.85
2022-10-25T03:05:05.571Z,15.84
2022-10-25T03:07:07.451Z,15.82
2022-10-25T03:09:09.791Z,15.82
2022-10-25T03:11:12.673Z,15.82
2022-10-25T03:13:14.489Z,15.79
2022-10-25T03:15:16.152Z,15.79
2022-10-25T03:17:17.726Z,15.78
2022-10-25T03:19:19.327Z,15.78
2022-10-25T03:21:20.903Z,15.76
2022-10-25T03:23:22.581Z,15.76
2022-10-25T03:25:24.667Z,15.74
2022-10-25T03:27:26.112Z,15.73
2022-10-25T03:29:27.628Z,15.72
2022-10-25T03:31:29.396Z,15.71
2022-10-25T03:35:38.053Z,15.67
2022-10-25T03:37:39.740Z,15.68
2022-10-25T03:39:41.368Z,15.65
2022-10-25T03:41:42.928Z,15.65
2022-10-25T03:43:44.468Z,15.64
2022-10-25T03:45:46.331Z,15.61
2022-10-25T03:47:48.165Z,15.61
2022-10-25T03:49:49.805Z,15.59
2022-10-25T03:51:53.996Z,15.58
2022-10-25T03:53:59.330Z,15.55
2022-10-25T03:56:01.290Z,15.55
2022-10-25T03:58:02.946Z,15.53
2022-10-25T04:00:05.471Z,15.52
2022-10-25T04:02:14.661Z,15.49
2022-10-25T04:04:16.350Z,15.47
2022-10-25T04:06:18.776Z,15.47
2022-10-25T04:08:20.578Z,15.44
2022-10-25T04:10:25.022Z,15.42
2022-10-25T04:12:27.018Z,15.41
2022-10-25T04:14:31.668Z,15.41
2022-10-25T04:16:33.519Z,15.39
2022-10-25T04:18:35.525Z,15.38
2022-10-25T04:20:37.296Z,15.40
2022-10-25T04:22:39.240Z,15.39
2022-10-25T04:24:40.994Z,15.40
2022-10-25T04:26:42.783Z,15.39
2022-10-25T04:28:49.279Z,15.40
2022-10-25T04:30:50.804Z,15.39
2022-10-25T04:32:52.645Z,15.40
2022-10-25T04:34:54.446Z,15.40
2022-10-25T04:36:55.947Z,15.39
2022-10-25T04:38:57.641Z,15.41
2022-10-25T04:41:00.801Z,15.44
2022-10-25T04:43:02.657Z,15.44
2022-10-25T04:45:04.776Z,15.46
2022-10-25T04:47:06.592Z,15.46
2022-10-25T04:49:11.322Z,15.44
2022-10-25T04:51:13.714Z,15.43
2022-10-25T04:53:15.401Z,15.44
2022-10-25T04:55:17.211Z,15.42
2022-10-25T04:57:18.960Z,15.43
2022-10-25T04:59:20.869Z,15.42
2022-10-25T05:01:22.457Z,15.44
2022-10-25T05:03:24.476Z,15.41
2022-10-25T05:05:26.080Z,15.40
2022-10-25T05:07:27.836Z,15.40
2022-10-25T05:09:29.745Z,15.37
2022-10-25T05:11:32.483Z,15.37
2022-10-25T05:13:36.662Z,15.35
2022-10-25T05:15:38.363Z,15.33
2022-10-25T05:17:39.910Z,15.29
2022-10-25T05:19:41.883Z,15.27
2022-10-25T05:21:48.022Z,15.25
2022-10-25T05:23:49.798Z,15.24
2022-10-25T05:26:05.126Z,15.19
2022-10-25T05:28:06.668Z,15.18
2022-10-25T05:30:09.274Z,15.15
2022-10-25T05:32:13.410Z,15.13
2022-10-25T05:34:17.317Z,15.10
2022-10-25T05:36:19.797Z,15.10
2022-10-25T05:38:21.518Z,15.07
2022-10-25T05:40:23.700Z,15.06
2022-10-25T05:42:27.458Z,15.06
2022-10-25T05:44:29.135Z,15.04
2022-10-25T05:46:31.321Z,15.04
2022-10-25T05:48:34.671Z,15.03
2022-10-25T05:50:36.306Z,15.02
2022-10-25T05:52:44.431Z,14.99
2022-10-25T05:54:46.220Z,14.98
2022-10-25T05:56:47.692Z,14.97
2022-10-25T05:58:59.225Z,14.94
2022-10-25T06:01:01.142Z,14.96
2022-10-25T06:03:03.218Z,14.96
2022-10-25T06:05:05.183Z,14.93
2022-10-25T06:07:06.723Z,14.93
2022-10-25T06:09:10.113Z,14.93
2022-10-25T06:11:14.911Z,14.95
2022-10-25T06:13:16.490Z,14.95
2022-10-25T06:15:18.146Z,14.93
2022-10-25T06:17:22.589Z,14.94
2022-10-25T06:19:24.195Z,14.93
2022-10-25T06:21:28.194Z,14.94
2022-10-25T06:23:31.516Z,14.95
2022-10-25T06:25:33.125Z,14.97
2022-10-25T06:27:36.867Z,14.98
2022-10-25T06:29:38.616Z,14.99
2022-10-25T06:31:41.627Z,14.97
2022-10-25T06:33:44.117Z,14.98
2022-10-25T06:35:45.697Z,15.00
2022-10-25T06:37:47.470Z,15.04
2022-10-25T06:39:49.219Z,15.06
2022-10-25T06:41:50.986Z,15.10
2022-10-25T06:43:54.471Z,15.12
2022-10-25T06:45:56.579Z,15.15
2022-10-25T06:47:58.265Z,15.15
2022-10-25T06:50:03.065Z,15.19
2022-10-25T06:52:04.976Z,15.23
2022-10-25T06:54:08.066Z,15.28
2022-10-25T06:56:14.692Z,15.33
2022-10-25T06:58:16.491Z,15.38
2022-10-25T07:00:18.483Z,15.42
2022-10-25T07:02:20.344Z,15.45
2022-10-25T07:04:22.528Z,15.46
2022-10-25T07:06:26.773Z,15.51
2022-10-25T07:08:28.705Z,15.56
2022-10-25T07:10:30.441Z,15.60
2022-10-25T07:12:38.032Z,15.66
2022-10-25T07:14:39.919Z,15.66
2022-10-25T07:16:41.707Z,15.71
2022-10-25T07:18:44.523Z,15.86
2022-10-25T07:20:48.694Z,15.88
2022-10-25T07:22:50.314Z,15.92
2022-10-25T07:24:52.092Z,15.98
2022-10-25T07:26:53.676Z,16.05
2022-10-25T07:28:57.225Z,16.09
2022-10-25T07:30:59.017Z,16.14
2022-10-25T07:33:03.107Z,16.20
2022-10-25T07:35:05.655Z,16.26
2022-10-25T07:37:07.499Z,16.32
2022-10-25T07:39:09.662Z,16.35
2022-10-25T07:41:11.525Z,16.38
2022-10-25T07:43:13.222Z,16.43
2022-10-25T07:45:17.382Z,16.47
2022-10-25T07:47:22.023Z,16.53
2022-10-25T07:49:23.537Z,16.56
2022-10-25T07:51:25.258Z,16.61
2022-10-25T07:53:26.962Z,16.66
2022-10-25T07:55:28.617Z,16.72
2022-10-25T07:57:30.235Z,16.81
2022-10-25T07:59:32.685Z,16.86
2022-10-25T08:01:34.335Z,16.94
2022-10-25T08:03:36.721Z,17.00
2022-10-25T08:05:38.510Z,17.07
2022-10-25T08:07:40.261Z,17.17
2022-10-25T08:09:41.968Z,17.26
2022-10-25T08:11:43.766Z,17.33
2022-10-25T08:13:49.110Z,17.41
2022-10-25T08:15:52.686Z,17.48
2022-10-25T08:18:02.016Z,17.55
2022-10-25T08:20:03.991Z,17.61
2022-10-25T08:22:05.877Z,17.66
2022-10-25T08:24:07.818Z,17.75
2022-10-25T08:26:09.714Z,17.78
2022-10-25T08:28:11.455Z,17.85
2022-10-25T08:30:13.230Z,17.89
2022-10-25T08:32:15.195Z,17.92
2022-10-25T08:34:16.988Z,17.96
2022-10-25T08:36:18.535Z,18.00
2022-10-25T08:38:20.147Z,18.06
2022-10-25T08:40:26.277Z,18.10
2022-10-25T08:42:51.728Z,18.12
2022-10-25T08:45:06.000Z,18.18
2022-10-25T08:47:27.254Z,18.21
2022-10-25T08:49:49.911Z,18.25
2022-10-25T08:51:53.926Z,18.31
2022-10-25T08:54:00.265Z,18.34
2022-10-25T08:56:17.904Z,18.40
2022-10-25T08:58:43.467Z,18.48
2022-10-25T09:00:47.393Z,18.55
2022-10-25T09:03:00.265Z,18.59
2022-10-25T09:05:02.371Z,18.67
2022-10-25T09:07:11.326Z,18.72
2022-10-25T09:09:25.057Z,18.79
2022-10-25T09:11:38.531Z,18.86
2022-10-25T09:13:40.367Z,18.92
2022-10-25T09:16:01.443Z,18.98
2022-10-25T09:18:13.722Z,19.04
2022-10-25T09:20:21.697Z,19.12
2022-10-25T09:22:31.786Z,19.19
2022-10-25T09:24:56.856Z,19.28
2022-10-25T09:27:08.296Z,19.38
2022-10-25T09:29:44.154Z,19.46
2022-10-25T09:31:51.411Z,19.55
2022-10-25T09:34:03.182Z,19.63
2022-10-25T09:36:08.383Z,19.69
2022-10-25T09:38:23.542Z,19.74
2022-10-25T09:40:30.146Z,19.82
2022-10-25T09:42:41.100Z,19.85
2022-10-25T09:44:48.345Z,19.88
2022-10-25T09:46:57.958Z,19.92
2022-10-25T09:49:05.638Z,19.96
2022-10-25T09:51:24.232Z,19.99
2022-10-25T09:53:26.311Z,20.02
2022-10-25T09:55:50.214Z,20.05
2022-10-25T09:57:51.989Z,20.04
2022-10-25T09:59:53.908Z,20.08
2022-10-25T10:01:55.761Z,20.10
2022-10-25T10:04:10.437Z,20.11
2022-10-25T10:06:26.125Z,20.11
2022-10-25T10:08:31.794Z,20.13
2022-10-25T10:10:35.541Z,20.14
2022-10-25T10:12:53.631Z,20.14
2022-10-25T10:15:07.383Z,20.16
2022-10-25T10:17:15.412Z,20.17
2022-10-25T10:19:18.626Z,20.18
2022-10-25T10:21:22.254Z,20.20
2022-10-25T10:23:25.201Z,20.20
2022-10-25T10:25:30.921Z,20.20
2022-10-25T10:27:33.950Z,20.22
2022-10-25T10:29:38.335Z,20.21
2022-10-25T10:31:43.728Z,20.22
2022-10-25T10:33:50.330Z,20.22
2022-10-25T10:35:54.389Z,20.23
2022-10-25T10:38:15.175Z,20.20
2022-10-25T10:40:19.757Z,20.21
2022-10-25T10:42:37.847Z,20.17
2022-10-25T10:44:39.875Z,20.18
2022-10-25T10:46:46.906Z,20.19
2022-10-25T10:48:58.379Z,20.17
2022-10-25T10:51:09.067Z,20.18
2022-10-25T10:53:31.421Z,20.16
2022-10-25T10:55:37.620Z,20.18
2022-10-25T10:57:39.293Z,20.19
2022-10-25T10:59:52.172Z,20.21
2022-10-25T11:02:02.584Z,20.22
2022-10-25T11:04:04.913Z,20.22
2022-10-25T11:06:19.004Z,20.24
2022-10-25T11:08:21.618Z,20.25
2022-10-25T11:10:32.827Z,20.27
2022-10-25T11:12:37.620Z,20.27
2022-10-25T11:14:42.810Z,20.27
2022-10-25T11:17:19.875Z,20.27
2022-10-25T11:19:51.514Z,20.28
2022-10-25T11:22:29.402Z,20.27
2022-10-25T11:24:58.801Z,20.31
2022-10-25T11:27:05.423Z,20.32
2022-10-25T11:29:25.717Z,20.35
2022-10-25T11:31:45.842Z,20.36
2022-10-25T11:34:00.463Z,20.41
2022-10-25T11:36:27.525Z,20.44
2022-10-25T11:38:59.190Z,20.49
2022-10-25T11:41:16.552Z,20.51
2022-10-25T11:43:46.481Z,20.56
2022-10-25T11:45:57.148Z,20.62
2022-10-25T11:48:36.483Z,20.66
2022-10-25T11:50:54.796Z,20.71
2022-10-25T11:53:21.342Z,20.74
2022-10-25T11:56:09.598Z,20.78
2022-10-25T11:58:45.741Z,20.81
2022-10-25T12:01:10.841Z,20.84
2022-10-25T12:03:34.182Z,20.85
2022-10-25T12:06:09.802Z,20.88
2022-10-25T12:08:47.014Z,20.90
2022-10-25T12:10:56.734Z,20.94
2022-10-25T12:13:06.307Z,20.94
2022-10-25T12:15:15.487Z,20.96
2022-10-25T12:17:29.840Z,20.95
2022-10-25T12:19:42.429Z,20.96
2022-10-25T12:21:56.696Z,20.99
2022-10-25T12:24:02.920Z,21.00
2022-10-25T12:26:14.620Z,21.03
2022-10-25T12:28:37.604Z,21.04
2022-10-25T12:30:41.225Z,21.05
2022-10-25T12:32:46.971Z,21.08
2022-10-25T12:34:57.668Z,21.10
2022-10-25T12:37:07.061Z,21.12
2022-10-25T12:39:30.543Z,21.15
2022-10-25T12:41:39.095Z,21.18
2022-10-25T12:43:51.902Z,21.23
2022-10-25T12:46:07.959Z,21.29
2022-10-25T12:48:53.475Z,21.38
2022-10-25T12:51:21.270Z,21.48
2022-10-25T12:53:31.914Z,21.61
2022-10-25T12:55:53.227Z,21.72
2022-10-25T12:58:02.278Z,21.79
2022-10-25T13:00:17.313Z,21.84
2022-10-25T13:02:39.232Z,21.87
2022-10-25T13:05:11.821Z,21.89
2022-10-25T13:07:17.394Z,21.90
2022-10-25T13:09:24.766Z,21.92
2022-10-25T13:11:54.651Z,21.92
2022-10-25T13:13:59.005Z,21.90
2022-10-25T13:16:05.420Z,21.91
2022-10-25T13:18:24.962Z,21.92
2022-10-25T13:20:35.759Z,21.92
2022-10-25T13:22:41.607Z,21.96
2022-10-25T13:24:44.913Z,21.98
2022-10-25T13:27:19.532Z,22.00
2022-10-25T13:29:47.997Z,22.03
2022-10-25T13:32:08.836Z,22.07
2022-10-25T13:34:13.465Z,22.12
2022-10-25T13:36:15.234Z,22.17
2022-10-25T13:38:25.985Z,22.18
2022-10-25T13:40:30.177Z,22.18
2022-10-25T13:42:34.287Z,22.18
2022-10-25T13:44:53.442Z,22.18
2022-10-25T13:46:55.861Z,22.16
2022-10-25T13:48:57.725Z,22.16
2022-10-25T13:51:17.918Z,22.11
2022-10-25T13:53:34.135Z,22.10
2022-10-25T13:55:38.857Z,22.09
2022-10-25T13:57:52.791Z,22.07
2022-10-25T13:59:55.732Z,22.06
2022-10-25T14:02:14.964Z,22.04
2022-10-25T14:04:33.808Z,22.05
2022-10-25T14:06:37.772Z,22.08
2022-10-25T14:09:09.661Z,22.07
2022-10-25T14:11:23.690Z,22.05
2022-10-25T14:13:45.048Z,22.03
2022-10-25T14:15:58.384Z,22.03
2022-10-25T14:18:07.137Z,22.02
2022-10-25T14:20:31.562Z,22.01
2022-10-25T14:22:40.176Z,22.00
2022-10-25T14:24:43.912Z,22.00
2022-10-25T14:26:51.249Z,21.97
2022-10-25T14:29:11.754Z,21.96
2022-10-25T14:31:19.726Z,21.99
2022-10-25T14:33:26.213Z,21.99
2022-10-25T14:35:34.148Z,22.00
2022-10-25T14:37:42.249Z,21.99
2022-10-25T14:39:53.178Z,21.98
2022-10-25T14:42:00.539Z,21.99
2022-10-25T14:44:02.627Z,21.93
2022-10-25T14:46:10.442Z,21.93
2022-10-25T14:48:14.981Z,21.92
2022-10-25T14:50:20.707Z,21.91
2022-10-25T14:52:22.497Z,21.89
2022-10-25T14:54:29.180Z,21.87
2022-10-25T14:56:54.876Z,21.83
2022-10-25T14:58:57.622Z,21.84
2022-10-25T15:01:04.935Z,21.82
2022-10-25T15:03:07.653Z,21.79
2022-10-25T15:05:22.768Z,21.75
2022-10-25T15:07:25.773Z,21.73
2022-10-25T15:09:42.393Z,21.71
2022-10-25T15:12:11.625Z,21.65
2022-10-25T15:14:21.526Z,21.63
2022-10-25T15:16:41.448Z,21.60
2022-10-25T15:18:43.243Z,21.60
2022-10-25T15:20:51.098Z,21.58
2022-10-25T15:23:04.643Z,21.53
2022-10-25T15:25:31.183Z,21.48
2022-10-25T15:27:39.573Z,21.46
2022-10-25T15:29:43.950Z,21.43
2022-10-25T15:31:45.839Z,21.39
2022-10-25T15:33:48.405Z,21.37
2022-10-25T15:35:53.446Z,21.35
2022-10-25T15:37:56.151Z,21.33
2022-10-25T15:39:58.057Z,21.29
2022-10-25T15:41:59.819Z,21.26
2022-10-25T15:44:01.518Z,21.22
2022-10-25T15:46:03.364Z,21.16
2022-10-25T15:48:07.793Z,21.11
2022-10-25T15:50:18.287Z,21.05
2022-10-25T15:52:20.495Z,20.99
2022-10-25T15:54:24.296Z,20.93
2022-10-25T15:56:25.987Z,20.89
2022-10-25T15:58:27.772Z,20.85
2022-10-25T16:00:31.008Z,20.80
2022-10-25T16:02:32.653Z,20.72
2022-10-25T16:04:34.077Z,20.69
2022-10-25T16:06:35.662Z,20.61
2022-10-25T16:08:37.198Z,20.56
2022-10-25T16:10:39.755Z,20.50
2022-10-25T16:12:42.666Z,20.45
2022-10-25T16:14:44.612Z,20.42
2022-10-25T16:16:46.361Z,20.35
2022-10-25T16:18:48.066Z,20.30
2022-10-25T16:20:49.841Z,20.23
2022-10-25T16:22:52.197Z,20.16
2022-10-25T16:24:54.141Z,20.13
2022-10-25T16:26:55.808Z,20.07
2022-10-25T16:28:57.372Z,19.99
2022-10-25T16:30:59.036Z,19.92
2022-10-25T16:33:00.894Z,19.85
2022-10-25T16:35:02.995Z,19.80
2022-10-25T16:37:07.791Z,19.75
2022-10-25T16:39:13.762Z,19.67
2022-10-25T16:41:31.889Z,19.56
2022-10-25T16:43:33.720Z,19.51
2022-10-25T16:45:37.197Z,19.45
2022-10-25T16:47:39.126Z,19.39
2022-10-25T16:49:40.831Z,19.32
2022-10-25T16:51:45.793Z,19.23
2022-10-25T16:53:48.391Z,19.17
2022-10-25T16:55:50.320Z,19.12
2022-10-25T16:57:51.991Z,19.06
2022-10-25T16:59:53.579Z,18.98
2022-10-25T17:01:55.747Z,18.92
2022-10-25T17:03:57.529Z,18.85
2022-10-25T17:06:00.370Z,18.77
2022-10-25T17:08:02.237Z,18.71
2022-10-25T17:10:03.921Z,18.64
2022-10-25T17:12:09.492Z,18.56
2022-10-25T17:14:12.562Z,18.52
2022-10-25T17:16:16.230Z,18.45
2022-10-25T17:18:21.573Z,18.38
2022-10-25T17:20:23.883Z,18.33
2022-10-25T17:22:27.050Z,18.26
2022-10-25T17:24:32.903Z,18.21
2022-10-25T17:26:35.046Z,18.14
2022-10-25T17:28:40.081Z,18.07
2022-10-25T17:30:44.993Z,18.01
2022-10-25T17:32:47.086Z,17.95
2022-10-25T17:34:48.766Z,17.89
2022-10-25T17:38:59.676Z,17.77
2022-10-25T17:41:01.427Z,17.72
2022-10-25T17:43:03.379Z,17.66
2022-10-25T17:45:06.420Z,17.63
2022-10-25T17:47:08.079Z,17.56
2022-10-25T17:49:09.995Z,17.53
2022-10-25T17:51:13.505Z,17.47
2022-10-25T17:53:15.089Z,17.41
2022-10-25T17:55:17.325Z,17.37
2022-10-25T17:57:19.063Z,17.32
2022-10-25T17:59:24.366Z,17.26
2022-10-25T18:01:28.107Z,17.22
2022-10-25T18:03:31.559Z,17.16
2022-10-25T18:05:33.383Z,17.10
2022-10-25T18:07:35.251Z,17.07
2022-10-25T18:09:37.145Z,17.05
2022-10-25T18:11:41.072Z,17.00
2022-10-25T18:13:44.323Z,16.96
2022-10-25T18:15:49.457Z,16.91
2022-10-25T18:17:51.457Z,16.84
2022-10-25T18:19:53.713Z,16.81
2022-10-25T18:22:00.733Z,16.76
2022-10-25T18:24:07.030Z,16.76
2022-10-25T18:26:12.482Z,16.70
2022-10-25T18:28:14.014Z,16.65
2022-10-25T18:30:16.194Z,16.61
2022-10-25T18:32:17.997Z,16.60
2022-10-25T18:34:19.856Z,16.55
2022-10-25T18:36:21.875Z,16.55
2022-10-25T18:38:23.674Z,16.55
2022-10-25T18:40:25.306Z,16.56
2022-10-25T18:42:29.371Z,16.53
2022-10-25T18:44:31.120Z,16.54
2022-10-25T18:46:32.959Z,16.52
2022-10-25T18:48:34.679Z,16.52
2022-10-25T18:50:40.434Z,16.53
2022-10-25T18:52:47.350Z,16.56
2022-10-25T18:54:49.473Z,16.58
2022-10-25T18:56:51.217Z,16.58
2022-10-25T18:58:54.639Z,16.62
2022-10-25T19:00:58.675Z,16.64
2022-10-25T19:03:00.324Z,16.66
2022-10-25T19:05:02.292Z,16.69
2022-10-25T19:07:07.007Z,16.73
2022-10-25T19:09:08.648Z,16.75
2022-10-25T19:11:13.112Z,16.77
2022-10-25T19:13:19.274Z,16.81
2022-10-25T19:15:20.975Z,16.84
2022-10-25T19:17:22.608Z,16.89
2022-10-25T19:19:24.285Z,16.95
2022-10-25T19:21:26.008Z,17.00
2022-10-25T19:23:31.017Z,17.06
2022-10-25T19:25:33.221Z,17.12
2022-10-25T19:27:37.170Z,17.18
2022-10-25T19:29:38.965Z,17.24
2022-10-25T19:31:40.821Z,17.28
2022-10-25T19:33:47.035Z,17.28
2022-10-25T19:35:48.734Z,17.28
2022-10-25T19:37:50.711Z,17.26
2022-10-25T19:39:54.523Z,17.25
2022-10-25T19:42:02.360Z,17.24
2022-10-25T19:44:04.350Z,17.23
2022-10-25T19:46:07.560Z,17.23
2022-10-25T19:48:09.217Z,17.20
2022-10-25T19:50:11.424Z,17.18
2022-10-25T19:52:13.109Z,17.17
2022-10-25T19:54:14.881Z,17.15
2022-10-25T19:56:19.531Z,17.11
2022-10-25T19:58:21.090Z,17.09
2022-10-25T20:00:23.071Z,17.06
2022-10-25T20:02:25.209Z,17.04
2022-10-25T20:04:29.716Z,17.00
2022-10-25T20:06:34.432Z,16.97
2022-10-25T20:08:42.219Z,16.93
2022-10-25T20:10:44.049Z,16.89
2022-10-25T20:12:45.588Z,16.86
2022-10-25T20:14:47.275Z,16.82
2022-10-25T20:16:48.820Z,16.78
2022-10-25T20:18:51.112Z,16.74
2022-10-25T20:20:58.474Z,16.69
2022-10-25T20:23:00.146Z,16.66
2022-10-25T20:25:01.946Z,16.62
2022-10-25T20:27:03.742Z,16.58
2022-10-25T20:29:08.356Z,16.54
2022-10-25T20:31:11.078Z,16.49
2022-10-25T20:33:12.864Z,16.47
2022-10-25T20:35:14.827Z,16.40
2022-10-25T20:37:16.614Z,16.35
2022-10-25T20:39:18.400Z,16.30
2022-10-25T20:41:25.823Z,16.25
2022-10-25T20:43:27.494Z,16.20
2022-10-25T20:45:30.040Z,16.13
2022-10-25T20:47:31.896Z,16.10
2022-10-25T20:49:33.572Z,16.06
2022-10-25T20:51:35.585Z,16.01
2022-10-25T20:53:38.425Z,15.98
2022-10-25T20:55:40.177Z,15.93
2022-10-25T20:57:45.587Z,15.88
2022-10-25T20:59:49.347Z,15.84
2022-10-25T21:01:51.251Z,15.82
2022-10-25T21:03:54.029Z,15.79
2022-10-25T21:06:04.703Z,15.76
2022-10-25T21:08:06.577Z,15.76
2022-10-25T21:10:08.442Z,15.74
2022-10-25T21:12:10.119Z,15.74
2022-10-25T21:14:12.185Z,15.74
2022-10-25T21:16:15.627Z,15.73
2022-10-25T21:18:17.840Z,15.74
2022-10-25T21:20:19.751Z,15.74
2022-10-25T21:22:21.335Z,15.74
2022-10-25T21:24:22.916Z,15.74
2022-10-25T21:26:24.601Z,15.75
2022-10-25T21:28:28.951Z,15.75
2022-10-25T21:30:30.847Z,15.74
2022-10-25T21:32:35.983Z,15.75
2022-10-25T21:34:37.786Z,15.76
2022-10-25T21:36:39.473Z,15.77
2022-10-25T21:38:41.713Z,15.80
2022-10-25T21:40:43.428Z,15.82
2022-10-25T21:42:45.645Z,15.83
2022-10-25T21:44:49.493Z,15.84
2022-10-25T21:46:51.328Z,15.87
2022-10-25T21:48:53.634Z,15.88
2022-10-25T21:50:58.446Z,15.89
2022-10-25T21:53:00.053Z,15.89
2022-10-25T21:55:02.112Z,15.91
2022-10-25T21:57:03.868Z,15.91
2022-10-25T21:59:05.674Z,15.94
2022-10-25T22:01:13.467Z,15.93
2022-10-25T22:03:15.122Z,15.92
2022-10-25T22:05:16.786Z,15.88
2022-10-25T22:07:18.439Z,15.87
2022-10-25T22:09:20.272Z,15.87
2022-10-25T22:11:24.516Z,15.86
2022-10-25T22:13:26.538Z,15.86
2022-10-25T22:15:28.137Z,15.83
2022-10-25T22:17:29.914Z,15.82
2022-10-25T22:19:31.438Z,15.80
2022-10-25T22:21:36.344Z,15.76
2022-10-25T22:23:39.435Z,15.75
2022-10-25T22:25:41.038Z,15.74
2022-10-25T22:29:49.438Z,15.72
2022-10-25T22:31:50.981Z,15.70
2022-10-25T22:33:54.759Z,15.69
2022-10-25T22:36:02.224Z,15.66
2022-10-25T22:38:03.916Z,15.66
2022-10-25T22:40:06.064Z,15.65
2022-10-25T22:42:11.982Z,15.62
2022-10-25T22:44:13.778Z,15.61
2022-10-25T22:46:25.943Z,15.57
2022-10-25T22:48:35.374Z,15.53
2022-10-25T22:50:37.132Z,15.50
2022-10-25T22:52:41.620Z,15.47
2022-10-25T22:54:43.430Z,15.45
2022-10-25T22:56:45.061Z,15.43
2022-10-25T22:58:58.085Z,15.40
2022-10-25T23:03:09.935Z,15.32
2022-10-25T23:05:11.892Z,15.27
2022-10-25T23:07:13.733Z,15.25
2022-10-25T23:09:15.312Z,15.21
2022-10-25T23:11:20.025Z,15.18
2022-10-25T23:13:21.592Z,15.14
2022-10-25T23:15:23.469Z,15.09
2022-10-25T23:17:25.143Z,15.08
2022-10-25T23:19:26.712Z,15.05
2022-10-25T23:21:32.078Z,15.01
2022-10-25T23:23:35.604Z,14.98
2022-10-25T23:25:37.329Z,14.97
2022-10-25T23:27:38.804Z,14.93
2022-10-25T23:29:41.219Z,14.91
2022-10-25T23:31:42.835Z,14.88
2022-10-25T23:33:44.628Z,14.86
2022-10-25T23:35:46.351Z,14.82
2022-10-25T23:37:48.334Z,14.80
2022-10-25T23:39:57.323Z,14.78
2022-10-25T23:41:58.867Z,14.75
2022-10-25T23:44:00.657Z,14.74
2022-10-25T23:46:02.538Z,14.72
2022-10-25T23:48:04.355Z,14.71
2022-10-25T23:50:07.396Z,14.70
2022-10-25T23:52:08.946Z,14.68
2022-10-25T23:54:10.617Z,14.67
2022-10-25T23:56:13.630Z,14.67
2022-10-25T23:58:15.249Z,14.66
